createdAt,value
2023-05-21T00:00:30.437Z,101049.27
2023-05-21T00:03:17.929Z,101046.80
2023-05-21T00:05:47.153Z,101046.14
2023-05-21T00:08:14.583Z,101048.85
2023-05-21T00:10:41.740Z,101044.70
2023-05-21T00:13:09.556Z,101039.34
2023-05-21T00:15:37.192Z,101043.87
2023-05-21T00:18:05.366Z,101045.52
2023-05-21T00:20:32.971Z,101045.68
2023-05-21T00:23:02.944Z,101044.23
2023-05-21T00:25:30.115Z,101043.94
2023-05-21T00:27:57.326Z,101039.14
2023-05-21T00:30:24.831Z,101041.55
2023-05-21T00:32:52.011Z,101040.11
2023-05-21T00:35:19.722Z,101040.34
2023-05-21T00:37:47.812Z,101039.76
2023-05-21T00:40:15.740Z,101039.83
2023-05-21T00:42:48.103Z,101038.77
2023-05-21T00:45:15.289Z,101044.86
2023-05-21T00:47:44.175Z,101041.21
2023-05-21T00:50:12.247Z,101040.71
2023-05-21T00:52:42.403Z,101040.47
2023-05-21T00:55:11.163Z,101037.81
2023-05-21T00:57:39.895Z,101033.17
2023-05-21T01:00:09.068Z,101033.67
2023-05-21T01:02:38.225Z,101034.19
2023-05-21T01:05:06.874Z,101027.01
2023-05-21T01:07:36.119Z,101023.40
2023-05-21T01:10:06.298Z,101023.15
2023-05-21T01:12:34.348Z,101022.47
2023-05-21T01:15:04.227Z,101017.53
2023-05-21T01:17:32.177Z,101018.73
2023-05-21T01:20:00.311Z,101016.46
2023-05-21T01:22:32.677Z,101018.13
2023-05-21T01:25:02.958Z,101019.45
2023-05-21T01:27:30.127Z,101023.92
2023-05-21T01:29:57.593Z,101022.98
2023-05-21T01:32:42.566Z,101021.26
2023-05-21T01:35:30.681Z,101022.04
2023-05-21T01:38:04.034Z,101013.42
2023-05-21T01:40:45.108Z,101017.17
2023-05-21T01:43:14.022Z,101020.06
2023-05-21T01:45:44.277Z,101020.09
2023-05-21T01:48:13.103Z,101026.45
2023-05-21T01:50:41.870Z,101027.90
2023-05-21T01:53:09.088Z,101026.24
2023-05-21T01:55:39.753Z,101028.83
2023-05-21T01:58:07.402Z,101027.87
2023-05-21T02:00:34.722Z,101023.27
2023-05-21T02:03:02.075Z,101026.09
2023-05-21T02:05:29.403Z,101025.44
2023-05-21T02:07:57.201Z,101022.65
2023-05-21T02:10:24.381Z,101018.69
2023-05-21T02:12:51.565Z,101020.81
2023-05-21T02:15:19.367Z,101019.20
2023-05-21T02:17:47.073Z,101016.80
2023-05-21T02:20:14.667Z,101020.40
2023-05-21T02:22:44.573Z,101018.83
2023-05-21T02:25:14.534Z,101014.69
2023-05-21T02:27:43.160Z,101015.14
2023-05-21T02:30:12.344Z,101011.94
2023-05-21T02:32:43.237Z,101012.58
2023-05-21T02:35:13.320Z,101004.52
2023-05-21T02:37:41.375Z,101011.34
2023-05-21T02:40:10.227Z,101013.51
2023-05-21T02:42:40.212Z,101012.62
2023-05-21T02:45:12.928Z,101015.63
2023-05-21T02:47:42.190Z,101015.28
2023-05-21T02:50:09.729Z,101013.52
2023-05-21T02:52:43.265Z,101013.90
2023-05-21T02:55:10.736Z,101011.95
2023-05-21T02:57:38.041Z,101009.90
2023-05-21T03:00:09.399Z,101006.75
2023-05-21T03:02:37.514Z,101005.45
2023-05-21T03:05:05.334Z,101005.08
2023-05-21T03:07:33.969Z,101003.70
2023-05-21T03:10:01.629Z,101005.16
2023-05-21T03:12:29.068Z,101004.70
2023-05-21T03:14:56.582Z,101003.98
2023-05-21T03:17:23.965Z,101000.77
2023-05-21T03:19:52.148Z,100999.48
2023-05-21T03:22:20.166Z,101004.01
2023-05-21T03:24:47.471Z,101006.33
2023-05-21T03:27:15.524Z,101007.12
2023-05-21T03:29:43.920Z,101002.60
2023-05-21T03:32:11.379Z,101007.15
2023-05-21T03:34:38.555Z,101006.61
2023-05-21T03:37:05.793Z,101008.09
2023-05-21T03:39:33.148Z,101003.73
2023-05-21T03:42:00.423Z,101005.34
2023-05-21T03:44:35.812Z,101007.43
2023-05-21T03:47:16.861Z,101007.39
2023-05-21T03:49:44.022Z,101006.02
2023-05-21T03:52:11.278Z,101008.08
2023-05-21T03:54:38.484Z,101004.60
2023-05-21T03:57:07.588Z,101003.90
2023-05-21T03:59:35.099Z,101006.09
2023-05-21T04:02:02.373Z,101004.91
2023-05-21T04:04:29.817Z,101002.41
2023-05-21T04:06:57.121Z,101007.20
2023-05-21T04:09:24.461Z,101010.21
2023-05-21T04:11:52.388Z,101009.97
2023-05-21T04:14:19.658Z,101005.19
2023-05-21T04:16:49.323Z,101004.95
2023-05-21T04:19:16.687Z,101007.60
2023-05-21T04:21:45.159Z,101006.77
2023-05-21T04:24:12.793Z,101008.10
2023-05-21T04:26:51.474Z,101007.48
2023-05-21T04:29:21.264Z,101010.11
2023-05-21T04:31:49.867Z,101010.13
2023-05-21T04:34:18.054Z,101011.56
2023-05-21T04:36:46.136Z,101006.33
2023-05-21T04:39:14.677Z,101002.30
2023-05-21T04:41:41.869Z,100999.33
2023-05-21T04:44:09.873Z,100997.98
2023-05-21T04:46:39.667Z,101001.31
2023-05-21T04:49:10.406Z,101003.33
2023-05-21T04:51:40.078Z,100998.61
2023-05-21T04:54:07.814Z,100994.14
2023-05-21T04:56:35.147Z,100992.00
2023-05-21T04:59:05.198Z,100989.11
2023-05-21T05:01:35.487Z,100989.12
2023-05-21T05:04:02.968Z,100992.68
2023-05-21T05:06:31.293Z,100990.73
2023-05-21T05:08:58.694Z,100987.08
2023-05-21T05:11:26.885Z,100987.61
2023-05-21T05:13:54.437Z,100985.46
2023-05-21T05:16:25.766Z,100985.90
2023-05-21T05:18:53.647Z,100986.13
2023-05-21T05:21:22.968Z,100981.70
2023-05-21T05:23:50.299Z,100986.64
2023-05-21T05:26:18.501Z,100986.69
2023-05-21T05:28:46.408Z,100982.27
2023-05-21T05:31:13.804Z,100983.06
2023-05-21T05:33:43.100Z,100980.08
2023-05-21T05:36:11.686Z,100978.52
2023-05-21T05:38:39.011Z,100979.33
2023-05-21T05:41:06.340Z,100981.55
2023-05-21T05:43:33.532Z,100977.64
2023-05-21T05:46:01.119Z,100978.88
2023-05-21T05:48:28.916Z,100980.33
2023-05-21T05:50:57.311Z,100979.38
2023-05-21T05:53:25.513Z,100977.93
2023-05-21T05:55:53.306Z,100981.35
2023-05-21T05:58:20.720Z,100973.52
2023-05-21T06:01:06.253Z,100976.21
2023-05-21T06:03:33.778Z,100972.17
2023-05-21T06:06:11.243Z,100968.90
2023-05-21T06:08:40.679Z,100967.56
2023-05-21T06:11:08.066Z,100963.77
2023-05-21T06:13:35.682Z,100967.01
2023-05-21T06:16:04.032Z,100968.29
2023-05-21T06:18:31.192Z,100968.69
2023-05-21T06:20:58.344Z,100969.05
2023-05-21T06:23:25.707Z,100967.14
2023-05-21T06:25:53.328Z,100967.79
2023-05-21T06:28:20.737Z,100966.98
2023-05-21T06:30:48.575Z,100966.09
2023-05-21T06:33:16.340Z,100967.65
2023-05-21T06:35:44.385Z,100968.05
2023-05-21T06:38:11.630Z,100967.61
2023-05-21T06:40:38.831Z,100969.77
2023-05-21T06:43:06.226Z,100967.33
2023-05-21T06:45:39.704Z,100969.06
2023-05-21T06:48:21.261Z,100964.55
2023-05-21T06:50:48.660Z,100967.08
2023-05-21T06:53:16.597Z,100955.78
2023-05-21T06:55:45.529Z,100955.86
2023-05-21T06:58:21.582Z,100958.02
2023-05-21T07:00:49.124Z,100961.58
2023-05-21T07:03:17.423Z,100955.47
2023-05-21T07:05:44.797Z,100958.99
2023-05-21T07:08:12.353Z,100960.53
2023-05-21T07:10:40.009Z,100959.35
2023-05-21T07:13:08.007Z,100956.77
2023-05-21T07:15:35.432Z,100954.44
2023-05-21T07:18:03.692Z,100958.52
2023-05-21T07:20:31.030Z,100960.56
2023-05-21T07:23:01.059Z,100956.50
2023-05-21T07:25:28.428Z,100957.66
2023-05-21T07:27:55.646Z,100963.59
2023-05-21T07:30:22.792Z,100955.54
2023-05-21T07:32:50.194Z,100956.46
2023-05-21T07:35:18.018Z,100953.69
2023-05-21T07:37:46.459Z,100950.97
2023-05-21T07:40:14.621Z,100952.45
2023-05-21T07:42:42.418Z,100946.04
2023-05-21T07:45:10.048Z,100948.16
2023-05-21T07:47:40.923Z,100946.59
2023-05-21T07:50:08.368Z,100943.66
2023-05-21T07:52:35.897Z,100941.45
2023-05-21T07:55:03.176Z,100938.20
2023-05-21T07:57:32.073Z,100941.78
2023-05-21T08:00:13.215Z,100940.67
2023-05-21T08:02:47.220Z,100942.35
2023-05-21T08:05:16.467Z,100941.33
2023-05-21T08:07:44.105Z,100937.91
2023-05-21T08:10:11.454Z,100936.42
2023-05-21T08:12:38.630Z,100937.10
2023-05-21T08:15:07.408Z,100940.11
2023-05-21T08:17:37.906Z,100936.31
2023-05-21T08:20:05.953Z,100932.86
2023-05-21T08:22:34.567Z,100931.59
2023-05-21T08:25:01.780Z,100926.91
2023-05-21T08:27:28.968Z,100924.80
2023-05-21T08:29:56.240Z,100928.23
2023-05-21T08:32:23.417Z,100925.34
2023-05-21T08:34:50.770Z,100925.95
2023-05-21T08:37:32.375Z,100927.20
2023-05-21T08:40:13.716Z,100923.58
2023-05-21T08:42:49.997Z,100920.05
2023-05-21T08:45:22.923Z,100922.19
2023-05-21T08:47:58.212Z,100921.59
2023-05-21T08:50:27.974Z,100916.73
2023-05-21T08:52:59.030Z,100925.48
2023-05-21T08:55:27.129Z,100923.20
2023-05-21T08:57:55.242Z,100920.08
2023-05-21T09:00:24.340Z,100918.11
2023-05-21T09:02:54.715Z,100921.52
2023-05-21T09:05:22.981Z,100923.14
2023-05-21T09:08:09.246Z,100922.38
2023-05-21T09:10:52.892Z,100924.16
2023-05-21T09:13:25.128Z,100922.88
2023-05-21T09:15:52.687Z,100919.42
2023-05-21T09:18:20.506Z,100911.25
2023-05-21T09:20:56.646Z,100911.33
2023-05-21T09:23:24.607Z,100914.44
2023-05-21T09:25:52.722Z,100913.09
2023-05-21T09:28:25.520Z,100907.43
2023-05-21T09:30:54.457Z,100907.21
2023-05-21T09:33:26.460Z,100904.57
2023-05-21T09:35:53.781Z,100900.38
2023-05-21T09:38:25.274Z,100900.58
2023-05-21T09:40:56.737Z,100902.02
2023-05-21T09:43:25.367Z,100897.38
2023-05-21T09:45:55.386Z,100900.58
2023-05-21T09:48:37.963Z,100900.64
2023-05-21T09:51:14.906Z,100896.66
2023-05-21T09:53:48.399Z,100898.67
2023-05-21T09:56:15.721Z,100897.98
2023-05-21T09:58:43.983Z,100892.44
2023-05-21T10:01:11.481Z,100897.23
2023-05-21T10:03:41.286Z,100894.36
2023-05-21T10:06:10.246Z,100896.75
2023-05-21T10:08:45.633Z,100896.80
2023-05-21T10:11:13.653Z,100892.91
2023-05-21T10:13:45.575Z,100889.98
2023-05-21T10:16:13.536Z,100888.17
2023-05-21T10:18:42.540Z,100887.56
2023-05-21T10:21:10.101Z,100883.13
2023-05-21T10:23:38.808Z,100889.48
2023-05-21T10:26:08.178Z,100889.33
2023-05-21T10:28:36.669Z,100888.13
2023-05-21T10:31:04.624Z,100887.24
2023-05-21T10:33:32.172Z,100885.23
2023-05-21T10:36:00.542Z,100886.78
2023-05-21T10:38:29.360Z,100881.28
2023-05-21T10:40:57.862Z,100872.72
2023-05-21T10:44:10.170Z,100869.39
2023-05-21T10:47:09.737Z,100872.92
2023-05-21T10:50:29.447Z,100864.06
2023-05-21T10:53:20.244Z,100863.10
2023-05-21T10:56:06.801Z,100863.41
2023-05-21T10:58:43.135Z,100856.94
2023-05-21T11:01:11.580Z,100850.90
2023-05-21T11:03:39.422Z,100844.99
2023-05-21T11:06:06.660Z,100850.98
2023-05-21T11:08:36.338Z,100849.16
2023-05-21T11:11:04.552Z,100844.68
2023-05-21T11:13:51.593Z,100843.24
2023-05-21T11:16:21.377Z,100846.71
2023-05-21T11:18:57.403Z,100850.36
2023-05-21T11:21:28.624Z,100851.36
2023-05-21T11:23:59.379Z,100846.58
2023-05-21T11:26:28.621Z,100842.45
2023-05-21T11:29:04.664Z,100846.54
2023-05-21T11:31:40.161Z,100840.02
2023-05-21T11:34:22.347Z,100846.50
2023-05-21T11:36:50.228Z,100838.83
2023-05-21T11:39:27.810Z,100834.55
2023-05-21T11:42:04.369Z,100828.33
2023-05-21T11:44:46.009Z,100828.48
2023-05-21T11:47:18.738Z,100831.71
2023-05-21T11:49:46.564Z,100831.45
2023-05-21T11:52:14.841Z,100820.71
2023-05-21T11:54:51.379Z,100824.44
2023-05-21T11:57:19.703Z,100821.02
2023-05-21T11:59:47.863Z,100812.09
2023-05-21T12:02:17.192Z,100815.41
2023-05-21T12:04:46.939Z,100821.05
2023-05-21T12:07:15.884Z,100814.41
2023-05-21T12:09:48.264Z,100811.31
2023-05-21T12:12:17.953Z,100819.83
2023-05-21T12:14:46.701Z,100816.69
2023-05-21T12:17:19.115Z,100814.81
2023-05-21T12:19:47.164Z,100813.06
2023-05-21T12:22:17.571Z,100813.84
2023-05-21T12:24:45.426Z,100812.52
2023-05-21T12:27:13.631Z,100814.13
2023-05-21T12:29:45.169Z,100808.42
2023-05-21T12:32:14.157Z,100810.44
2023-05-21T12:34:46.642Z,100807.70
2023-05-21T12:37:27.813Z,100809.74
2023-05-21T12:39:58.280Z,100797.80
2023-05-21T12:42:27.546Z,100797.72
2023-05-21T12:44:54.703Z,100796.27
2023-05-21T12:47:26.761Z,100793.88
2023-05-21T12:49:58.046Z,100794.33
2023-05-21T12:52:27.347Z,100788.52
2023-05-21T12:54:59.012Z,100793.73
2023-05-21T12:57:28.432Z,100797.27
2023-05-21T12:59:59.850Z,100790.46
2023-05-21T13:02:29.582Z,100787.15
2023-05-21T13:05:01.481Z,100784.55
2023-05-21T13:07:30.038Z,100784.55
2023-05-21T13:09:58.009Z,100781.92
2023-05-21T13:12:26.844Z,100779.95
2023-05-21T13:14:56.450Z,100777.48
2023-05-21T13:17:26.431Z,100778.30
2023-05-21T13:20:09.562Z,100772.95
2023-05-21T13:22:46.944Z,100778.09
2023-05-21T13:25:16.959Z,100780.35
2023-05-21T13:27:44.692Z,100780.94
2023-05-21T13:30:12.430Z,100771.27
2023-05-21T13:32:41.000Z,100769.23
2023-05-21T13:35:10.097Z,100771.46
2023-05-21T13:37:37.534Z,100769.97
2023-05-21T13:40:06.505Z,100767.24
2023-05-21T13:42:34.629Z,100761.04
2023-05-21T13:45:01.833Z,100762.11
2023-05-21T13:47:29.235Z,100758.00
2023-05-21T13:49:56.327Z,100757.38
2023-05-21T13:52:23.493Z,100755.41
2023-05-21T13:54:50.718Z,100752.49
2023-05-21T13:57:18.323Z,100752.25
2023-05-21T13:59:45.529Z,100750.45
2023-05-21T14:02:12.765Z,100751.29
2023-05-21T14:04:39.985Z,100754.31
2023-05-21T14:07:07.240Z,100751.52
2023-05-21T14:09:34.946Z,100754.59
2023-05-21T14:12:03.486Z,100755.51
2023-05-21T14:14:32.383Z,100757.07
2023-05-21T14:16:59.583Z,100753.27
2023-05-21T14:19:26.973Z,100747.27
2023-05-21T14:21:54.467Z,100742.99
2023-05-21T14:24:21.582Z,100738.96
2023-05-21T14:26:48.764Z,100733.11
2023-05-21T14:29:15.997Z,100741.85
2023-05-21T14:31:43.205Z,100740.89
2023-05-21T14:34:10.453Z,100734.75
2023-05-21T14:36:37.695Z,100739.17
2023-05-21T14:39:04.886Z,100736.09
2023-05-21T14:41:32.178Z,100735.48
2023-05-21T14:43:59.375Z,100734.40
2023-05-21T14:46:26.957Z,100733.39
2023-05-21T14:48:55.537Z,100731.60
2023-05-21T14:51:22.731Z,100726.75
2023-05-21T14:53:50.119Z,100726.67
2023-05-21T14:56:17.534Z,100723.39
2023-05-21T14:58:44.717Z,100725.13
2023-05-21T15:01:12.055Z,100720.86
2023-05-21T15:03:39.275Z,100719.30
2023-05-21T15:06:06.503Z,100719.56
2023-05-21T15:08:33.720Z,100719.02
2023-05-21T15:11:00.874Z,100716.98
2023-05-21T15:13:28.118Z,100715.40
2023-05-21T15:15:55.381Z,100723.00
2023-05-21T15:18:22.521Z,100722.29
2023-05-21T15:20:49.793Z,100719.90
2023-05-21T15:23:17.965Z,100722.20
2023-05-21T15:25:45.956Z,100723.27
2023-05-21T15:28:13.305Z,100720.55
2023-05-21T15:30:40.599Z,100723.02
2023-05-21T15:33:07.769Z,100717.14
2023-05-21T15:35:36.688Z,100712.71
2023-05-21T15:38:04.268Z,100713.73
2023-05-21T15:40:32.344Z,100715.90
2023-05-21T15:42:59.605Z,100712.70
2023-05-21T15:45:26.753Z,100709.96
2023-05-21T15:47:54.029Z,100703.90
2023-05-21T15:50:21.199Z,100702.48
2023-05-21T15:52:49.029Z,100700.56
2023-05-21T15:55:17.517Z,100699.71
2023-05-21T15:57:44.644Z,100700.11
2023-05-21T16:00:12.645Z,100702.45
2023-05-21T16:02:41.966Z,100697.81
2023-05-21T16:05:09.818Z,100693.54
2023-05-21T16:07:38.384Z,100690.33
2023-05-21T16:10:08.424Z,100690.84
2023-05-21T16:12:35.545Z,100687.63
2023-05-21T16:15:02.757Z,100689.45
2023-05-21T16:17:30.000Z,100686.23
2023-05-21T16:19:57.421Z,100686.38
2023-05-21T16:22:25.175Z,100686.58
2023-05-21T16:24:52.297Z,100682.05
2023-05-21T16:27:19.783Z,100680.00
2023-05-21T16:29:47.037Z,100676.73
2023-05-21T16:32:14.450Z,100677.45
2023-05-21T16:34:41.820Z,100676.39
2023-05-21T16:37:09.932Z,100675.43
2023-05-21T16:39:37.579Z,100679.02
2023-05-21T16:42:05.016Z,100676.52
2023-05-21T16:44:32.428Z,100681.61
2023-05-21T16:47:00.249Z,100678.79
2023-05-21T16:49:28.047Z,100679.39
2023-05-21T16:51:55.203Z,100670.75
2023-05-21T16:54:22.390Z,100668.30
2023-05-21T16:56:49.570Z,100667.71
2023-05-21T16:59:16.733Z,100668.33
2023-05-21T17:01:43.972Z,100672.51
2023-05-21T17:04:11.174Z,100669.60
2023-05-21T17:06:38.346Z,100670.89
2023-05-21T17:09:05.538Z,100671.79
2023-05-21T17:11:32.735Z,100672.83
2023-05-21T17:13:59.928Z,100673.99
2023-05-21T17:16:27.207Z,100679.48
2023-05-21T17:18:54.273Z,100679.53
2023-05-21T17:21:21.607Z,100680.34
2023-05-21T17:23:48.826Z,100679.56
2023-05-21T17:26:16.296Z,100680.04
2023-05-21T17:28:43.927Z,100678.01
2023-05-21T17:31:11.322Z,100676.42
2023-05-21T17:33:39.566Z,100676.85
2023-05-21T17:36:06.890Z,100675.48
2023-05-21T17:38:34.095Z,100672.14
2023-05-21T17:41:01.378Z,100677.73
2023-05-21T17:43:28.654Z,100674.44
2023-05-21T17:45:55.900Z,100671.81
2023-05-21T17:48:23.273Z,100677.30
2023-05-21T17:50:51.177Z,100676.63
2023-05-21T17:53:18.378Z,100677.66
2023-05-21T17:55:45.535Z,100679.83
2023-05-21T17:58:12.711Z,100677.88
2023-05-21T18:00:39.928Z,100678.17
2023-05-21T18:03:07.108Z,100682.20
2023-05-21T18:05:34.608Z,100680.04
2023-05-21T18:08:02.913Z,100680.33
2023-05-21T18:10:30.218Z,100681.71
2023-05-21T18:12:57.365Z,100684.27
2023-05-21T18:15:24.547Z,100682.04
2023-05-21T18:17:51.735Z,100681.27
2023-05-21T18:20:18.966Z,100678.52
2023-05-21T18:22:46.192Z,100684.95
2023-05-21T18:25:13.435Z,100689.77
2023-05-21T18:27:40.785Z,100691.02
2023-05-21T18:30:08.672Z,100690.73
2023-05-21T18:32:38.940Z,100693.34
2023-05-21T18:35:11.181Z,100698.59
2023-05-21T18:37:41.676Z,100698.08
2023-05-21T18:40:09.478Z,100700.08
2023-05-21T18:42:36.598Z,100703.86
2023-05-21T18:45:08.526Z,100702.48
2023-05-21T18:47:35.989Z,100704.95
2023-05-21T18:50:03.403Z,100707.88
2023-05-21T18:52:30.526Z,100710.39
2023-05-21T18:54:57.632Z,100708.05
2023-05-21T18:57:24.827Z,100711.22
2023-05-21T18:59:51.969Z,100713.30
2023-05-21T19:02:19.258Z,100712.20
2023-05-21T19:04:46.636Z,100710.46
2023-05-21T19:07:15.953Z,100712.14
2023-05-21T19:09:43.113Z,100713.11
2023-05-21T19:12:10.309Z,100715.48
2023-05-21T19:14:37.754Z,100717.64
2023-05-21T19:17:05.342Z,100717.58
2023-05-21T19:19:32.519Z,100718.92
2023-05-21T19:21:59.791Z,100722.80
2023-05-21T19:24:26.897Z,100723.06
2023-05-21T19:26:54.157Z,100722.10
2023-05-21T19:29:21.663Z,100720.99
2023-05-21T19:31:48.948Z,100717.95
2023-05-21T19:34:16.458Z,100721.85
2023-05-21T19:36:52.896Z,100716.38
2023-05-21T19:39:21.247Z,100711.48
2023-05-21T19:41:48.538Z,100711.41
2023-05-21T19:44:15.739Z,100710.66
2023-05-21T19:46:42.939Z,100708.16
2023-05-21T19:49:14.693Z,100706.29
2023-05-21T19:51:41.910Z,100706.48
2023-05-21T19:54:09.076Z,100705.71
2023-05-21T19:56:36.408Z,100701.29
2023-05-21T19:59:04.121Z,100707.98
2023-05-21T20:01:34.696Z,100704.64
2023-05-21T20:04:02.310Z,100701.36
2023-05-21T20:06:29.497Z,100699.34
2023-05-21T20:08:56.717Z,100698.45
2023-05-21T20:11:24.161Z,100702.14
2023-05-21T20:13:51.460Z,100698.41
2023-05-21T20:16:20.068Z,100698.69
2023-05-21T20:18:47.611Z,100698.77
2023-05-21T20:21:18.446Z,100697.64
2023-05-21T20:23:46.143Z,100697.14
2023-05-21T20:26:14.706Z,100700.85
2023-05-21T20:28:42.006Z,100699.55
2023-05-21T20:31:09.457Z,100708.09
2023-05-21T20:33:42.464Z,100708.84
2023-05-21T20:36:09.707Z,100709.83
2023-05-21T20:38:38.291Z,100714.58
2023-05-21T20:41:05.580Z,100717.00
2023-05-21T20:43:33.074Z,100718.86
2023-05-21T20:46:01.818Z,100720.41
2023-05-21T20:48:30.052Z,100717.99
2023-05-21T20:51:00.499Z,100718.77
2023-05-21T20:53:27.873Z,100716.22
2023-05-21T20:55:55.121Z,100715.15
2023-05-21T20:58:24.239Z,100716.17
2023-05-21T21:00:52.648Z,100718.27
2023-05-21T21:03:21.798Z,100721.63
2023-05-21T21:05:51.413Z,100720.18
2023-05-21T21:08:18.713Z,100722.41
2023-05-21T21:10:47.173Z,100717.46
2023-05-21T21:13:15.060Z,100721.79
2023-05-21T21:15:44.151Z,100717.48
2023-05-21T21:18:12.709Z,100714.73
2023-05-21T21:20:41.481Z,100715.52
2023-05-21T21:23:09.395Z,100718.30
2023-05-21T21:25:36.683Z,100717.58
2023-05-21T21:28:04.122Z,100725.62
2023-05-21T21:30:31.296Z,100724.27
2023-05-21T21:32:58.415Z,100727.19
2023-05-21T21:35:25.646Z,100725.95
2023-05-21T21:37:52.874Z,100725.83
2023-05-21T21:40:20.000Z,100725.04
2023-05-21T21:42:47.368Z,100724.11
2023-05-21T21:45:14.595Z,100722.65
2023-05-21T21:47:41.791Z,100721.99
2023-05-21T21:50:09.325Z,100722.63
2023-05-21T21:52:40.209Z,100722.23
2023-05-21T21:55:11.308Z,100723.98
2023-05-21T21:57:39.415Z,100724.29
2023-05-21T22:00:15.896Z,100726.06
2023-05-21T22:02:44.049Z,100727.88
2023-05-21T22:05:14.886Z,100727.02
2023-05-21T22:07:46.406Z,100722.50
2023-05-21T22:10:15.306Z,100722.55
2023-05-21T22:12:43.360Z,100722.37
2023-05-21T22:15:27.620Z,100723.33
2023-05-21T22:17:55.424Z,100722.55
2023-05-21T22:20:23.429Z,100722.80
2023-05-21T22:22:50.776Z,100722.20
2023-05-21T22:25:18.607Z,100722.02
2023-05-21T22:27:45.826Z,100718.27
2023-05-21T22:30:13.232Z,100718.38
2023-05-21T22:32:40.496Z,100716.09
2023-05-21T22:35:08.508Z,100713.27
2023-05-21T22:37:37.443Z,100711.64
2023-05-21T22:40:08.587Z,100708.42
2023-05-21T22:42:36.430Z,100715.61
2023-05-21T22:45:04.036Z,100715.05
2023-05-21T22:47:32.359Z,100713.34
2023-05-21T22:50:00.847Z,100712.76
2023-05-21T22:52:28.954Z,100711.60
2023-05-21T22:54:57.999Z,100709.33
2023-05-21T22:57:25.155Z,100706.57
2023-05-21T22:59:52.428Z,100704.20
2023-05-21T23:02:19.607Z,100705.04
2023-05-21T23:04:48.531Z,100702.55
2023-05-21T23:07:16.163Z,100704.13
2023-05-21T23:09:43.427Z,100698.41
2023-05-21T23:12:11.232Z,100698.37
2023-05-21T23:14:38.430Z,100698.19
2023-05-21T23:17:05.723Z,100698.84
2023-05-21T23:19:33.048Z,100697.70
2023-05-21T23:22:00.649Z,100701.21
2023-05-21T23:24:29.572Z,100699.23
2023-05-21T23:27:02.015Z,100699.77
2023-05-21T23:29:30.476Z,100701.64
2023-05-21T23:31:58.008Z,100702.48
2023-05-21T23:34:25.739Z,100699.27
2023-05-21T23:36:53.134Z,100695.27
2023-05-21T23:39:21.071Z,100696.69
2023-05-21T23:41:48.839Z,100696.49
2023-05-21T23:44:16.280Z,100697.52
2023-05-21T23:46:43.592Z,100697.69
2023-05-21T23:49:10.747Z,100696.36
2023-05-21T23:51:38.493Z,100692.44
2023-05-21T23:54:05.791Z,100695.13
2023-05-21T23:56:32.944Z,100693.96
2023-05-21T23:59:00.168Z,100695.30
